Time;durP1;ratioP1;P1;durP2;ratioP2;P2;SDS_P1;SDS_P2;PMS_P1;PMS_P2;Temp;Humidity;BMP_temperature;BMP_pressure;BME280_temperature;BME280_humidity;BME280_pressure;Samples;Min_cycle;Max_cycle;Signal;HPM_P1;HPM_P2
2021/06/12 00:01:36;;;;;;;18.30;12.20;;;15.00;99.90;;;;;;5032877;28;20670;-60
2021/06/12 00:04:02;;;;;;;13.30;9.87;;;14.90;99.90;;;;;;5051776;28;20190;-61
2021/06/12 00:06:28;;;;;;;12.03;10.03;;;14.90;99.90;;;;;;5043904;28;20499;-62
2021/06/12 00:08:53;;;;;;;25.33;11.03;;;14.90;99.90;;;;;;5017258;28;20840;-60
2021/06/12 00:11:19;;;;;;;15.93;11.20;;;14.90;99.90;;;;;;5050503;28;20187;-60
2021/06/12 00:13:45;;;;;;;15.20;11.10;;;14.90;99.90;;;;;;5051407;28;20181;-59
2021/06/12 00:16:10;;;;;;;16.83;11.23;;;14.80;99.90;;;;;;5048162;28;20175;-61
2021/06/12 00:18:36;;;;;;;12.80;11.03;;;14.80;99.90;;;;;;5033695;28;20238;-61
2021/06/12 00:21:02;;;;;;;14.07;11.63;;;14.80;99.90;;;;;;5051359;28;20262;-60
2021/06/12 00:23:28;;;;;;;13.60;10.40;;;14.80;99.90;;;;;;5033439;28;20238;-59
2021/06/12 00:25:54;;;;;;;15.03;10.83;;;14.70;99.90;;;;;;5046231;28;20426;-59
2021/06/12 00:28:19;;;;;;;14.83;11.10;;;14.70;99.90;;;;;;5045593;28;20178;-59
2021/06/12 00:30:45;;;;;;;14.20;10.20;;;14.70;99.90;;;;;;5051225;28;20183;-60
2021/06/12 00:33:11;;;;;;;13.30;10.47;;;14.60;99.90;;;;;;5054629;28;20776;-60
2021/06/12 00:35:37;;;;;;;13.67;11.10;;;14.60;99.90;;;;;;5032240;28;20482;-60
2021/06/12 00:38:03;;;;;;;13.53;10.50;;;14.60;99.90;;;;;;5029704;28;20738;-60
2021/06/12 00:40:28;;;;;;;15.13;10.03;;;14.50;99.90;;;;;;5050603;28;20210;-59
2021/06/12 00:42:54;;;;;;;15.00;11.30;;;14.60;99.90;;;;;;5039616;28;20434;-60
2021/06/12 00:45:23;;;;;;;17.00;11.10;;;14.50;99.90;;;;;;5053495;28;20186;-60
2021/06/12 00:47:52;;;;;;;14.70;10.80;;;14.50;99.90;;;;;;5053193;28;20184;-59
2021/06/12 00:50:19;;;;;;;16.93;12.67;;;14.50;99.90;;;;;;5070368;28;20808;-60
2021/06/12 00:52:45;;;;;;;14.40;11.33;;;14.40;99.90;;;;;;5036706;28;20562;-60
2021/06/12 00:55:14;;;;;;;17.70;10.87;;;14.40;99.90;;;;;;5049532;28;20950;-59
2021/06/12 00:57:40;;;;;;;15.23;12.07;;;14.30;99.90;;;;;;5050643;28;20171;-60
2021/06/12 01:00:08;;;;;;;14.77;11.10;;;14.30;99.90;;;;;;5013636;28;20461;-59
2021/06/12 01:02:35;;;;;;;13.17;10.90;;;14.30;99.90;;;;;;5031466;28;20203;-60
2021/06/12 01:05:01;;;;;;;16.40;10.80;;;14.30;99.90;;;;;;5049389;28;20824;-60
2021/06/12 01:07:27;;;;;;;13.90;10.50;;;14.20;99.90;;;;;;5040916;28;20438;-60
2021/06/12 01:09:52;;;;;;;15.20;11.23;;;14.20;99.90;;;;;;5050544;28;20270;-60
2021/06/12 01:12:33;;;;;;;13.83;11.77;;;14.20;99.90;;;;;;5050026;28;20240;-60
2021/06/12 01:15:04;;;;;;;13.90;10.90;;;14.20;99.90;;;;;;5050189;28;20557;-59
2021/06/12 01:18:00;;;;;;;15.00;10.43;;;14.10;99.90;;;;;;5046718;28;20402;-59
2021/06/12 01:21:09;;;;;;;14.23;10.97;;;14.10;99.90;;;;;;5051297;28;20453;-59
2021/06/12 01:23:54;;;;;;;18.37;10.93;;;14.10;99.90;;;;;;4967613;28;20433;-59
2021/06/12 01:26:47;;;;;;;15.13;10.40;;;14.10;99.90;;;;;;4973925;28;20510;-60
2021/06/12 01:29:50;;;;;;;17.50;11.83;;;14.10;99.90;;;;;;5028591;28;20996;-59
2021/06/12 01:32:17;;;;;;;16.60;10.90;;;14.10;99.90;;;;;;5044359;28;20757;-59
2021/06/12 01:34:46;;;;;;;14.90;11.33;;;14.10;99.90;;;;;;5034714;28;20422;-59
2021/06/12 01:37:13;;;;;;;14.90;10.53;;;14.00;99.90;;;;;;5062631;28;20476;-59
2021/06/12 01:39:40;;;;;;;18.43;12.43;;;14.00;99.90;;;;;;5049249;28;20970;-59
2021/06/12 01:42:08;;;;;;;13.27;11.17;;;14.00;99.90;;;;;;5042913;28;20963;-58
2021/06/12 01:44:35;;;;;;;16.30;12.10;;;14.00;99.90;;;;;;5030021;28;20415;-60
2021/06/12 01:47:03;;;;;;;15.33;12.10;;;13.90;99.90;;;;;;5042555;28;20425;-60
2021/06/12 01:49:31;;;;;;;14.70;11.30;;;13.90;99.90;;;;;;5048668;28;20469;-59
2021/06/12 01:51:58;;;;;;;14.93;11.37;;;13.90;99.90;;;;;;5040163;28;20464;-59
2021/06/12 01:54:26;;;;;;;16.03;12.00;;;13.80;99.90;;;;;;5050262;28;20394;-60
2021/06/12 01:56:53;;;;;;;16.07;11.37;;;13.80;99.90;;;;;;5041171;28;20434;-61
2021/06/12 01:59:20;;;;;;;15.90;11.70;;;13.80;99.90;;;;;;5044983;28;20453;-59
2021/06/12 02:01:49;;;;;;;15.20;11.27;;;13.80;99.90;;;;;;5052231;28;20421;-59
2021/06/12 02:04:17;;;;;;;14.50;11.27;;;13.80;99.90;;;;;;5048988;28;20460;-61
2021/06/12 02:06:44;;;;;;;17.07;12.17;;;13.80;99.90;;;;;;5029248;28;20522;-61
2021/06/12 02:09:11;;;;;;;19.93;12.43;;;13.70;99.90;;;;;;5049173;28;20441;-59
2021/06/12 02:11:38;;;;;;;16.20;11.20;;;13.70;99.90;;;;;;5049372;28;20507;-58
2021/06/12 02:14:07;;;;;;;15.10;11.50;;;13.70;99.90;;;;;;5050190;28;20470;-59
2021/06/12 02:16:37;;;;;;;15.07;11.00;;;13.70;99.90;;;;;;5047863;28;20803;-59
2021/06/12 02:19:04;;;;;;;13.67;10.50;;;13.60;99.90;;;;;;5049168;28;20477;-59
2021/06/12 02:21:31;;;;;;;15.63;11.93;;;13.60;99.90;;;;;;5031995;28;20417;-59
2021/06/12 02:23:57;;;;;;;13.77;11.40;;;13.60;99.90;;;;;;5041426;28;20965;-59
2021/06/12 02:26:26;;;;;;;16.70;11.90;;;13.60;99.90;;;;;;5035812;28;20446;-59
2021/06/12 02:28:52;;;;;;;13.63;11.47;;;13.60;99.90;;;;;;5047622;28;20437;-59
2021/06/12 02:31:25;;;;;;;17.30;12.00;;;13.60;99.90;;;;;;5049174;28;20476;-59
2021/06/12 02:33:52;;;;;;;13.60;10.13;;;13.60;99.90;;;;;;5050217;28;20859;-59
2021/06/12 02:36:19;;;;;;;17.90;11.57;;;13.50;99.90;;;;;;5052579;28;20418;-60
2021/06/12 02:38:45;;;;;;;17.10;12.20;;;13.50;99.90;;;;;;5053080;28;20910;-59
2021/06/12 02:41:12;;;;;;;16.97;12.03;;;13.50;99.90;;;;;;5031541;28;20448;-58
2021/06/12 02:43:37;;;;;;;18.53;11.80;;;13.50;99.90;;;;;;5026896;28;20414;-58
2021/06/12 02:46:05;;;;;;;14.63;11.43;;;13.40;99.90;;;;;;5034358;28;20439;-59
2021/06/12 02:48:32;;;;;;;13.43;11.40;;;13.40;99.90;;;;;;5053396;28;20168;-59
2021/06/12 02:50:59;;;;;;;13.67;11.03;;;13.40;99.90;;;;;;5065355;28;20955;-59
2021/06/12 02:53:28;;;;;;;15.30;11.77;;;13.40;99.90;;;;;;5066211;28;20497;-59
2021/06/12 02:55:58;;;;;;;14.50;11.30;;;13.40;99.90;;;;;;5052051;28;20417;-59
2021/06/12 02:58:26;;;;;;;15.50;11.27;;;13.40;99.90;;;;;;5055304;28;20428;-59
2021/06/12 03:00:54;;;;;;;14.10;11.23;;;13.40;99.90;;;;;;5052473;28;20413;-58
2021/06/12 03:03:20;;;;;;;15.63;10.93;;;13.30;99.90;;;;;;5049970;28;20425;-59
2021/06/12 03:05:50;;;;;;;16.40;10.80;;;13.30;99.90;;;;;;5053322;28;20455;-61
2021/06/12 03:08:17;;;;;;;14.97;11.37;;;13.30;99.90;;;;;;5046993;28;20450;-59
2021/06/12 03:10:44;;;;;;;15.23;10.43;;;13.30;99.90;;;;;;5052758;28;20426;-59
2021/06/12 03:13:13;;;;;;;13.43;10.90;;;13.30;99.90;;;;;;5031196;28;20508;-58
2021/06/12 03:15:40;;;;;;;13.93;10.90;;;13.30;99.90;;;;;;5046839;28;20432;-59
2021/06/12 03:18:06;;;;;;;14.77;11.93;;;13.20;99.90;;;;;;5052206;28;20417;-59
2021/06/12 03:20:32;;;;;;;13.93;10.90;;;13.20;99.90;;;;;;5052630;28;20468;-59
2021/06/12 03:23:02;;;;;;;19.23;12.00;;;13.20;99.90;;;;;;5054237;28;20437;-59
2021/06/12 03:25:28;;;;;;;14.23;10.80;;;13.20;99.90;;;;;;5037025;23;20493;-57
2021/06/12 03:27:56;;;;;;;14.60;11.43;;;13.20;99.90;;;;;;5010587;28;20418;-57
2021/06/12 03:30:23;;;;;;;16.90;11.70;;;13.10;99.90;;;;;;5010069;28;20435;-54
2021/06/12 03:32:50;;;;;;;13.10;11.03;;;13.10;99.90;;;;;;5008176;28;20500;-55
2021/06/12 03:35:16;;;;;;;15.23;11.00;;;13.10;99.90;;;;;;5032105;28;20433;-54
2021/06/12 03:37:42;;;;;;;16.23;11.97;;;13.10;99.90;;;;;;5047315;28;20564;-55
2021/06/12 03:40:09;;;;;;;16.37;12.70;;;13.10;99.90;;;;;;5025355;28;20471;-54
2021/06/12 03:42:40;;;;;;;14.00;11.37;;;13.10;99.90;;;;;;5037169;28;20461;-54
2021/06/12 03:45:09;;;;;;;16.43;10.80;;;13.10;99.90;;;;;;5013338;28;20438;-54
2021/06/12 03:47:35;;;;;;;13.77;11.90;;;13.10;99.90;;;;;;5029631;28;20426;-55
2021/06/12 03:50:03;;;;;;;15.97;11.37;;;13.10;99.90;;;;;;5025590;28;20438;-54
2021/06/12 03:52:30;;;;;;;21.90;12.53;;;13.10;99.90;;;;;;5013693;28;20533;-53
2021/06/12 03:54:57;;;;;;;15.80;11.90;;;13.10;99.90;;;;;;5036643;28;20502;-56
2021/06/12 03:57:24;;;;;;;18.00;12.60;;;13.10;99.90;;;;;;5031413;28;20998;-54
2021/06/12 03:59:50;;;;;;;16.83;11.63;;;13.20;99.90;;;;;;5027138;28;20947;-55
2021/06/12 04:02:16;;;;;;;14.67;12.13;;;13.20;99.90;;;;;;5026413;28;20445;-55
2021/06/12 04:04:44;;;;;;;17.50;12.23;;;13.20;99.90;;;;;;5029485;28;20937;-55
2021/06/12 04:07:10;;;;;;;14.63;11.10;;;13.20;99.90;;;;;;5029491;28;20514;-55
2021/06/12 04:09:36;;;;;;;13.50;10.20;;;13.20;99.90;;;;;;5021187;28;20951;-55
2021/06/12 04:12:01;;;;;;;12.30;10.20;;;13.30;99.90;;;;;;5020570;28;20215;-55
2021/06/12 04:14:27;;;;;;;12.63;10.23;;;13.30;99.90;;;;;;5034030;28;20600;-55
2021/06/12 04:16:53;;;;;;;15.10;11.37;;;13.30;99.90;;;;;;5014510;28;20363;-55
2021/06/12 04:19:18;;;;;;;14.80;11.27;;;13.30;99.90;;;;;;5019105;28;20179;-55
2021/06/12 04:21:44;;;;;;;19.40;11.40;;;13.40;99.90;;;;;;5029057;28;20564;-56
2021/06/12 04:24:10;;;;;;;15.93;10.50;;;13.40;99.90;;;;;;5028944;28;20200;-55
2021/06/12 04:26:35;;;;;;;14.30;11.60;;;13.40;99.90;;;;;;5024196;28;20215;-56
2021/06/12 04:29:01;;;;;;;14.90;11.63;;;13.40;99.90;;;;;;5037781;28;20175;-55
2021/06/12 04:31:27;;;;;;;14.03;10.93;;;13.40;99.90;;;;;;5029544;28;20199;-56
2021/06/12 04:33:52;;;;;;;13.20;10.77;;;13.50;99.90;;;;;;5028789;28;20412;-56
2021/06/12 04:36:18;;;;;;;18.40;11.63;;;13.50;99.90;;;;;;5039165;28;20535;-55
2021/06/12 04:38:44;;;;;;;15.43;10.70;;;13.50;99.90;;;;;;5013239;28;20584;-56
2021/06/12 04:41:09;;;;;;;15.37;11.40;;;13.60;99.90;;;;;;5016909;28;20189;-54
2021/06/12 04:43:35;;;;;;;15.73;10.73;;;13.50;99.90;;;;;;5048415;28;20251;-55
2021/06/12 04:46:00;;;;;;;12.80;10.13;;;13.60;99.90;;;;;;5028579;28;20676;-55
2021/06/12 04:48:26;;;;;;;16.93;11.90;;;13.60;99.90;;;;;;5010456;28;20296;-55
2021/06/12 04:50:52;;;;;;;15.37;10.97;;;13.70;99.90;;;;;;5027043;28;20196;-55
2021/06/12 04:53:17;;;;;;;12.90;10.10;;;13.60;99.90;;;;;;5027195;28;20238;-56
2021/06/12 04:55:43;;;;;;;14.00;11.30;;;13.60;99.90;;;;;;5020827;28;20207;-54
2021/06/12 04:58:10;;;;;;;13.17;10.30;;;13.60;99.90;;;;;;5034324;28;20172;-56
2021/06/12 05:00:37;;;;;;;13.27;10.63;;;13.60;99.90;;;;;;5027494;28;20871;-55
2021/06/12 05:03:03;;;;;;;12.80;10.87;;;13.70;99.90;;;;;;5042513;28;20407;-56
2021/06/12 05:05:29;;;;;;;14.30;10.47;;;13.70;99.90;;;;;;5008771;28;20509;-56
2021/06/12 05:07:55;;;;;;;15.30;11.30;;;13.80;99.90;;;;;;5019421;28;20431;-55
2021/06/12 05:10:21;;;;;;;17.17;12.13;;;13.90;99.90;;;;;;5027928;28;20176;-56
2021/06/12 05:12:46;;;;;;;22.07;11.13;;;14.00;99.90;;;;;;5026460;28;20541;-53
2021/06/12 05:15:12;;;;;;;13.40;10.40;;;14.00;99.90;;;;;;5027472;28;20192;-58
2021/06/12 05:17:40;;;;;;;12.47;10.20;;;14.10;99.90;;;;;;5026914;28;20179;-57
2021/06/12 05:20:08;;;;;;;15.23;12.40;;;14.30;99.90;;;;;;5035396;28;20487;-55
2021/06/12 05:22:34;;;;;;;14.27;10.30;;;14.40;99.90;;;;;;5005542;28;20435;-56
2021/06/12 05:25:00;;;;;;;13.10;10.73;;;14.40;99.90;;;;;;5020401;28;20809;-55
2021/06/12 05:27:26;;;;;;;18.77;10.43;;;14.50;99.90;;;;;;5024103;28;20442;-56
2021/06/12 05:29:52;;;;;;;15.90;10.50;;;14.50;99.90;;;;;;5027839;28;20454;-54
2021/06/12 05:32:18;;;;;;;17.90;10.50;;;14.60;99.90;;;;;;4991069;28;20672;-56
2021/06/12 05:34:44;;;;;;;12.43;10.13;;;14.60;99.90;;;;;;5015637;28;20307;-54
2021/06/12 05:37:10;;;;;;;12.60;9.47;;;14.70;99.90;;;;;;5032316;28;20176;-55
2021/06/12 05:39:36;;;;;;;18.43;9.20;;;14.80;99.90;;;;;;5031048;28;20426;-55
2021/06/12 05:42:02;;;;;;;12.97;10.23;;;14.90;99.90;;;;;;5026376;28;20511;-55
2021/06/12 05:44:27;;;;;;;12.43;9.30;;;15.00;99.90;;;;;;5013382;28;20707;-52
2021/06/12 05:46:53;;;;;;;12.17;10.23;;;15.10;99.90;;;;;;5026496;28;20714;-55
2021/06/12 05:49:19;;;;;;;12.57;10.50;;;15.10;99.90;;;;;;5027209;28;20179;-55
2021/06/12 05:51:45;;;;;;;13.80;10.90;;;15.30;99.90;;;;;;5010336;28;20204;-54
2021/06/12 05:54:11;;;;;;;15.70;11.60;;;15.40;99.90;;;;;;5017592;28;20439;-54
2021/06/12 05:56:37;;;;;;;18.23;12.17;;;15.50;99.90;;;;;;5011963;28;20777;-56
2021/06/12 05:59:02;;;;;;;13.53;11.73;;;15.50;99.90;;;;;;5007083;28;20187;-56
2021/06/12 06:01:28;;;;;;;15.30;11.77;;;15.60;99.90;;;;;;5026330;28;20647;-56
2021/06/12 06:03:54;;;;;;;22.30;13.73;;;15.80;99.90;;;;;;5021779;28;20227;-55
2021/06/12 06:06:20;;;;;;;18.07;13.43;;;15.90;99.90;;;;;;5010214;28;20712;-55
2021/06/12 06:08:45;;;;;;;15.00;13.27;;;15.90;99.90;;;;;;5012238;28;20606;-54
2021/06/12 06:11:11;;;;;;;21.50;12.70;;;16.00;99.90;;;;;;4999094;28;20183;-54
2021/06/12 06:13:42;;;;;;;23.87;12.67;;;16.00;99.90;;;;;;5027424;28;20282;-55
2021/06/12 06:16:08;;;;;;;20.20;13.70;;;16.10;99.90;;;;;;5026854;28;20635;-55
2021/06/12 06:18:38;;;;;;;21.27;13.33;;;16.30;99.90;;;;;;5017765;28;20437;-55
2021/06/12 06:21:05;;;;;;;16.47;12.87;;;16.40;99.90;;;;;;5026727;28;20403;-55
2021/06/12 06:23:31;;;;;;;17.80;13.23;;;16.50;99.90;;;;;;5019305;28;20430;-55
2021/06/12 06:25:57;;;;;;;27.80;12.93;;;16.70;99.90;;;;;;4996128;28;20466;-55
2021/06/12 06:28:23;;;;;;;14.20;12.37;;;16.80;99.90;;;;;;5021775;28;20762;-54
2021/06/12 06:30:49;;;;;;;17.83;12.80;;;16.90;99.90;;;;;;5034637;28;20206;-55
2021/06/12 06:33:14;;;;;;;17.53;12.57;;;17.00;99.90;;;;;;5024657;28;20191;-55
2021/06/12 06:35:40;;;;;;;16.17;13.10;;;17.00;99.80;;;;;;5020608;28;20254;-54
2021/06/12 06:38:06;;;;;;;24.60;12.70;;;17.10;99.90;;;;;;5027085;28;20576;-55
2021/06/12 06:40:32;;;;;;;16.83;11.27;;;17.30;99.70;;;;;;5025975;28;20251;-56
2021/06/12 06:42:58;;;;;;;19.20;13.03;;;17.40;98.60;;;;;;5036461;28;20186;-56
2021/06/12 06:45:23;;;;;;;18.00;11.90;;;17.50;98.20;;;;;;5008646;28;20519;-54
2021/06/12 06:47:50;;;;;;;20.23;12.50;;;17.60;97.60;;;;;;5027342;28;20175;-54
2021/06/12 06:50:16;;;;;;;18.40;13.33;;;17.70;97.30;;;;;;5026525;28;20282;-55
2021/06/12 06:52:43;;;;;;;19.60;11.97;;;17.80;97.30;;;;;;5003695;28;20458;-57
2021/06/12 06:55:10;;;;;;;16.40;11.07;;;17.90;97.10;;;;;;5026536;28;20438;-55
2021/06/12 06:57:36;;;;;;;14.23;12.07;;;17.90;97.20;;;;;;5025891;28;20415;-55
2021/06/12 07:00:04;;;;;;;15.53;11.77;;;18.00;97.40;;;;;;5026068;28;20421;-55
2021/06/12 07:02:29;;;;;;;15.73;11.57;;;18.10;96.90;;;;;;5022391;28;20184;-54
2021/06/12 07:04:55;;;;;;;14.83;11.80;;;18.20;96.70;;;;;;5025585;28;20472;-54
2021/06/12 07:07:23;;;;;;;15.37;10.93;;;18.30;95.90;;;;;;5023436;28;20188;-56
2021/06/12 07:09:49;;;;;;;16.77;11.40;;;18.40;96.20;;;;;;5018471;28;20175;-55
2021/06/12 07:12:15;;;;;;;14.43;12.40;;;18.60;96.60;;;;;;5023347;28;20573;-55
2021/06/12 07:14:43;;;;;;;15.43;12.17;;;18.70;96.80;;;;;;5024465;28;20461;-55
2021/06/12 07:17:09;;;;;;;21.17;11.70;;;18.80;96.40;;;;;;5017163;28;20191;-55
2021/06/12 07:19:35;;;;;;;16.00;11.80;;;18.90;96.20;;;;;;5016931;28;20486;-53
2021/06/12 07:22:00;;;;;;;17.77;12.00;;;19.00;96.40;;;;;;5018509;28;20191;-56
2021/06/12 07:24:26;;;;;;;11.90;10.57;;;19.00;96.40;;;;;;5022206;28;20311;-55
2021/06/12 07:26:52;;;;;;;13.93;11.13;;;19.10;96.40;;;;;;5033166;28;20207;-55
2021/06/12 07:29:18;;;;;;;14.53;11.70;;;19.30;96.70;;;;;;5027460;28;20894;-54
2021/06/12 07:31:43;;;;;;;14.67;11.63;;;19.40;96.60;;;;;;5029508;28;20231;-55
2021/06/12 07:34:10;;;;;;;13.43;11.00;;;19.50;96.90;;;;;;5014373;28;20210;-56
2021/06/12 07:36:37;;;;;;;11.80;9.77;;;19.70;96.60;;;;;;5019832;28;20176;-56
2021/06/12 07:39:04;;;;;;;14.27;10.40;;;19.90;94.80;;;;;;5029051;28;21000;-56
2021/06/12 07:41:31;;;;;;;13.60;11.40;;;20.10;91.50;;;;;;5019428;28;20433;-56
2021/06/12 07:43:56;;;;;;;11.27;10.07;;;20.30;90.90;;;;;;5024294;28;20532;-54
2021/06/12 07:46:22;;;;;;;13.50;10.60;;;20.50;90.10;;;;;;5027564;28;20454;-58
2021/06/12 07:48:48;;;;;;;15.33;10.10;;;20.60;86.10;;;;;;5023501;28;20215;-56
2021/06/12 07:51:13;;;;;;;12.37;10.30;;;20.80;86.40;;;;;;5005343;28;20325;-55
2021/06/12 07:53:39;;;;;;;10.70;9.57;;;20.90;86.90;;;;;;5025661;28;20192;-55
2021/06/12 07:56:05;;;;;;;12.70;10.13;;;21.00;86.70;;;;;;5025814;28;20275;-56
2021/06/12 07:58:31;;;;;;;12.80;10.00;;;21.20;85.90;;;;;;5023131;28;20245;-57
2021/06/12 08:00:57;;;;;;;13.10;10.43;;;21.30;85.30;;;;;;5022411;28;20188;-55
2021/06/12 08:03:23;;;;;;;14.23;10.13;;;21.50;84.90;;;;;;5022769;28;20512;-56
2021/06/12 08:05:48;;;;;;;14.20;10.00;;;21.60;83.90;;;;;;5028395;28;20230;-55
2021/06/12 08:08:14;;;;;;;9.73;8.73;;;21.80;82.60;;;;;;5027952;28;20505;-57
2021/06/12 08:10:40;;;;;;;12.47;9.83;;;21.90;79.70;;;;;;5000921;28;20613;-56
2021/06/12 08:13:05;;;;;;;10.03;8.57;;;22.00;75.20;;;;;;5018818;28;20218;-57
2021/06/12 08:15:31;;;;;;;13.90;9.60;;;22.00;73.10;;;;;;5023652;28;20282;-56
2021/06/12 08:17:57;;;;;;;10.90;9.20;;;22.10;71.70;;;;;;5023891;28;20179;-55
2021/06/12 08:20:24;;;;;;;12.80;9.87;;;22.20;75.90;;;;;;5036986;28;20249;-56
2021/06/12 08:22:52;;;;;;;12.60;9.50;;;22.40;71.00;;;;;;5024607;28;20191;-57
2021/06/12 08:25:18;;;;;;;10.57;9.40;;;22.50;73.50;;;;;;5018331;28;20476;-56
2021/06/12 08:27:45;;;;;;;11.57;8.50;;;22.50;71.80;;;;;;5022371;28;20580;-57
2021/06/12 08:30:12;;;;;;;9.10;8.20;;;22.60;77.10;;;;;;5031428;28;20463;-57
2021/06/12 08:32:41;;;;;;;11.17;9.50;;;22.80;70.30;;;;;;5022241;28;20462;-56
2021/06/12 08:35:08;;;;;;;9.47;8.57;;;22.80;69.40;;;;;;5012340;28;20488;-57
2021/06/12 08:37:34;;;;;;;10.90;9.00;;;22.90;68.20;;;;;;5020812;28;20434;-57
2021/06/12 08:40:01;;;;;;;10.00;8.40;;;22.90;64.70;;;;;;5024144;28;20479;-57
2021/06/12 08:42:27;;;;;;;9.47;7.97;;;23.00;64.70;;;;;;5019589;28;20450;-56
2021/06/12 08:44:53;;;;;;;9.00;8.10;;;23.00;59.60;;;;;;5016151;28;20471;-57
2021/06/12 08:47:20;;;;;;;8.60;7.70;;;23.10;60.80;;;;;;5018859;28;20300;-56
2021/06/12 08:49:46;;;;;;;8.97;7.40;;;23.20;58.30;;;;;;5024447;28;20449;-57
2021/06/12 08:52:12;;;;;;;8.67;7.77;;;23.30;57.80;;;;;;5029061;28;20462;-57
2021/06/12 08:54:41;;;;;;;12.50;7.50;;;23.40;55.70;;;;;;5020046;28;20203;-57
2021/06/12 08:57:09;;;;;;;9.10;8.20;;;23.60;57.50;;;;;;5035744;28;20955;-57
2021/06/12 08:59:35;;;;;;;9.57;8.10;;;23.80;56.80;;;;;;5025964;28;20554;-58
2021/06/12 09:02:05;;;;;;;9.13;7.83;;;23.90;56.30;;;;;;5027464;28;20517;-58
2021/06/12 09:04:33;;;;;;;9.37;7.00;;;24.00;57.40;;;;;;5029158;28;20836;-58
2021/06/12 09:07:19;;;;;;;7.67;6.83;;;24.20;54.80;;;;;;5012181;28;20441;-57
2021/06/12 09:09:46;;;;;;;7.40;6.77;;;24.20;54.10;;;;;;5012889;28;20549;-60
2021/06/12 09:12:12;;;;;;;8.37;7.47;;;24.30;54.00;;;;;;5014411;28;20839;-55
2021/06/12 09:14:38;;;;;;;8.40;7.60;;;24.30;54.20;;;;;;5016726;28;20459;-58
2021/06/12 09:17:04;;;;;;;8.13;7.00;;;24.40;54.20;;;;;;5023042;28;21513;-57
2021/06/12 09:19:39;;;;;;;8.00;7.20;;;24.60;54.60;;;;;;5026140;28;20439;-57
2021/06/12 09:22:07;;;;;;;8.63;7.10;;;24.80;54.10;;;;;;4985966;28;20183;-57
2021/06/12 09:24:41;;;;;;;9.43;7.33;;;24.90;51.70;;;;;;5010311;22;20458;-60
2021/06/12 09:27:16;;;;;;;7.40;6.70;;;24.90;50.90;;;;;;5020186;28;21000;-60
2021/06/12 09:29:43;;;;;;;8.93;7.03;;;25.00;51.30;;;;;;5019037;28;20446;-58
2021/06/12 09:32:21;;;;;;;8.73;7.07;;;25.10;50.10;;;;;;5019111;28;20457;-60
2021/06/12 09:34:53;;;;;;;7.77;6.90;;;25.10;50.10;;;;;;5037459;28;20445;-61
2021/06/12 09:37:22;;;;;;;8.93;7.33;;;24.80;49.80;;;;;;5039066;28;20425;-60
2021/06/12 09:40:04;;;;;;;7.97;7.27;;;24.50;50.50;;;;;;5018461;28;20435;-62
2021/06/12 09:42:50;;;;;;;7.17;6.40;;;24.20;50.80;;;;;;5028606;28;20435;-61
2021/06/12 09:45:19;;;;;;;9.43;7.07;;;24.00;52.00;;;;;;5030810;28;20503;-60
2021/06/12 09:47:45;;;;;;;10.00;7.30;;;23.80;52.60;;;;;;5014503;28;20518;-60
2021/06/12 09:50:13;;;;;;;9.03;7.00;;;23.70;53.40;;;;;;5029999;28;20520;-60
2021/06/12 09:52:47;;;;;;;8.57;7.67;;;23.50;53.80;;;;;;5030617;28;20248;-61
2021/06/12 09:55:27;;;;;;;9.00;8.20;;;23.50;55.20;;;;;;5034128;28;20453;-61
2021/06/12 09:57:54;;;;;;;11.90;8.20;;;23.40;56.70;;;;;;5032075;28;20438;-60
2021/06/12 10:00:39;;;;;;;9.40;8.40;;;23.40;57.50;;;;;;5030893;28;20461;-61
2021/06/12 10:03:24;;;;;;;13.67;7.60;;;23.50;60.10;;;;;;5034828;28;22379;-60
2021/06/12 10:06:10;;;;;;;8.13;7.30;;;23.80;62.70;;;;;;5031612;28;20458;-62
2021/06/12 10:08:36;;;;;;;9.73;7.33;;;24.10;63.20;;;;;;5034369;28;20952;-62
2021/06/12 10:11:02;;;;;;;8.43;7.07;;;24.30;62.90;;;;;;5032703;28;20780;-65
2021/06/12 10:13:28;;;;;;;7.37;6.67;;;24.50;64.70;;;;;;5025294;28;20452;-62
2021/06/12 10:15:57;;;;;;;9.10;6.93;;;24.70;63.70;;;;;;5044865;28;20533;-61
2021/06/12 10:18:25;;;;;;;9.30;7.77;;;24.70;62.30;;;;;;5043519;28;20254;-61
2021/06/12 10:20:50;;;;;;;7.80;7.10;;;24.70;62.30;;;;;;5042800;28;20429;-62
2021/06/12 10:23:16;;;;;;;8.13;6.70;;;24.50;62.00;;;;;;5016221;28;20433;-63
2021/06/12 10:25:42;;;;;;;8.50;7.70;;;24.30;61.40;;;;;;5047510;28;20199;-61
2021/06/12 10:28:09;;;;;;;7.20;6.50;;;24.00;60.40;;;;;;5043060;28;20211;-62
2021/06/12 10:30:36;;;;;;;9.33;7.57;;;23.80;58.40;;;;;;5037139;28;20178;-63
2021/06/12 10:33:02;;;;;;;7.97;7.10;;;23.60;58.20;;;;;;5046809;28;20965;-62
2021/06/12 10:35:30;;;;;;;8.13;7.33;;;23.50;58.70;;;;;;5047639;28;20854;-62
2021/06/12 10:38:13;;;;;;;7.20;6.60;;;23.50;58.80;;;;;;5029705;28;20490;-62
2021/06/12 10:41:12;;;;;;;7.57;6.20;;;23.80;59.80;;;;;;5037780;28;20457;-62
2021/06/12 10:43:38;;;;;;;8.37;7.57;;;24.30;61.90;;;;;;5029107;28;20427;-62
2021/06/12 10:46:07;;;;;;;7.30;6.60;;;24.80;60.20;;;;;;5039487;28;20464;-62
2021/06/12 10:48:43;;;;;;;7.43;6.73;;;25.20;57.30;;;;;;5016599;28;20421;-62
2021/06/12 10:51:31;;;;;;;9.07;7.47;;;25.70;58.20;;;;;;5020908;28;20429;-64
2021/06/12 10:54:18;;;;;;;6.50;5.87;;;26.00;54.00;;;;;;5024661;28;20544;-63
2021/06/12 10:56:47;;;;;;;6.63;6.07;;;26.20;52.60;;;;;;5048136;28;20979;-63
2021/06/12 10:59:33;;;;;;;6.83;6.20;;;26.30;52.60;;;;;;5027840;28;20438;-62
2021/06/12 11:02:07;;;;;;;7.63;6.93;;;26.50;51.10;;;;;;5047178;28;20440;-62
2021/06/12 11:04:46;;;;;;;8.97;6.73;;;26.40;51.60;;;;;;5039033;28;20442;-62
2021/06/12 11:07:38;;;;;;;6.50;5.80;;;26.40;52.80;;;;;;5040708;28;20951;-63
2021/06/12 11:10:10;;;;;;;5.77;5.20;;;26.40;53.10;;;;;;5036650;28;20471;-63
2021/06/12 11:12:37;;;;;;;6.20;5.00;;;26.40;50.50;;;;;;5048527;28;20522;-62
2021/06/12 11:15:23;;;;;;;5.73;5.20;;;26.30;50.40;;;;;;5031578;28;20440;-62
2021/06/12 11:18:12;;;;;;;5.60;4.90;;;26.30;51.70;;;;;;5041523;28;20460;-62
2021/06/12 11:20:42;;;;;;;6.73;5.30;;;26.20;51.40;;;;;;5035336;28;20452;-63
2021/06/12 11:23:09;;;;;;;5.57;5.07;;;26.20;51.10;;;;;;5032093;28;20700;-62
2021/06/12 11:25:37;;;;;;;10.63;5.60;;;26.30;50.80;;;;;;5014560;28;20461;-62
2021/06/12 11:28:21;;;;;;;6.23;5.00;;;26.50;50.20;;;;;;5033885;28;20445;-62
2021/06/12 11:30:52;;;;;;;5.30;4.90;;;26.80;48.80;;;;;;5047248;28;20397;-62
2021/06/12 11:33:18;;;;;;;5.40;4.67;;;26.90;47.20;;;;;;5034620;28;20552;-62
2021/06/12 11:35:46;;;;;;;6.50;5.23;;;27.10;47.30;;;;;;5041948;28;20904;-62
2021/06/12 11:38:14;;;;;;;4.70;4.40;;;27.20;46.60;;;;;;5026470;28;20503;-61
2021/06/12 11:41:08;;;;;;;4.83;4.50;;;27.20;45.50;;;;;;5036770;28;20415;-62
2021/06/12 11:43:38;;;;;;;5.63;5.10;;;27.20;44.60;;;;;;5031752;28;20465;-63
2021/06/12 11:46:28;;;;;;;4.70;4.30;;;27.20;45.80;;;;;;5023704;28;20499;-62
2021/06/12 11:48:54;;;;;;;4.57;4.17;;;27.30;47.00;;;;;;5035608;28;20689;-62
2021/06/12 11:51:33;;;;;;;6.03;4.20;;;27.40;47.30;;;;;;5034948;28;20699;-62
2021/06/12 11:54:15;;;;;;;5.03;4.57;;;27.60;46.60;;;;;;5036465;28;20444;-62
2021/06/12 11:56:57;;;;;;;4.77;4.27;;;27.60;46.60;;;;;;5043505;28;20483;-63
2021/06/12 11:59:25;;;;;;;5.27;4.37;;;27.60;44.80;;;;;;5038387;28;20970;-64
2021/06/12 12:01:59;;;;;;;4.37;3.97;;;27.60;45.60;;;;;;5033803;28;20517;-61
2021/06/12 12:04:32;;;;;;;4.80;4.03;;;27.60;46.00;;;;;;5027384;28;20957;-61
2021/06/12 12:06:58;;;;;;;4.17;3.77;;;27.80;46.70;;;;;;5042648;28;20414;-61
2021/06/12 12:09:34;;;;;;;4.13;3.77;;;28.00;46.20;;;;;;5018573;28;20945;-62
2021/06/12 12:12:04;;;;;;;4.17;3.77;;;28.20;45.50;;;;;;5048209;28;20206;-62
2021/06/12 12:14:34;;;;;;;8.70;4.30;;;28.30;43.50;;;;;;5038756;28;20445;-62
2021/06/12 12:17:04;;;;;;;3.50;3.20;;;28.30;42.20;;;;;;5030958;28;20394;-62
2021/06/12 12:19:30;;;;;;;4.27;3.63;;;28.40;43.10;;;;;;5035132;28;20464;-61
2021/06/12 12:21:58;;;;;;;9.50;3.70;;;28.50;42.20;;;;;;5047311;28;20529;-62
2021/06/12 12:24:28;;;;;;;6.27;3.50;;;28.60;41.50;;;;;;5043098;28;20206;-62
2021/06/12 12:27:07;;;;;;;3.50;3.20;;;28.70;41.60;;;;;;5047915;28;20182;-62
2021/06/12 12:29:34;;;;;;;3.67;3.17;;;28.80;40.30;;;;;;5039874;28;20179;-62
2021/06/12 12:32:01;;;;;;;3.43;2.97;;;28.90;40.40;;;;;;5046228;28;20211;-62
2021/06/12 12:34:39;;;;;;;3.33;3.13;;;29.00;41.90;;;;;;5043666;28;20195;-62
2021/06/12 12:37:16;;;;;;;3.60;3.30;;;28.80;39.40;;;;;;5040550;28;20164;-62
2021/06/12 12:39:43;;;;;;;3.50;3.23;;;28.50;39.90;;;;;;5012710;28;20218;-62
2021/06/12 12:42:16;;;;;;;3.23;2.93;;;28.50;40.50;;;;;;5030228;28;20250;-62